sensor_id;sensor_type;location;lat;lon;timestamp;P1;durP1;ratioP1;P2;durP2;ratioP2
48026;SDS011;50714;49.208;5.364;2023-08-12T00:00:48;3.97;;;2.28;;
48026;SDS011;50714;49.208;5.364;2023-08-12T00:10:48;3.10;;;1.90;;
48026;SDS011;50714;49.208;5.364;2023-08-12T00:20:48;2.58;;;2.03;;
48026;SDS011;50714;49.208;5.364;2023-08-12T00:30:49;2.75;;;2.15;;
48026;SDS011;50714;49.208;5.364;2023-08-12T00:40:49;2.90;;;2.08;;
48026;SDS011;50714;49.208;5.364;2023-08-12T00:50:49;3.92;;;2.20;;
48026;SDS011;50714;49.208;5.364;2023-08-12T01:00:50;3.33;;;2.58;;
48026;SDS011;50714;49.208;5.364;2023-08-12T01:10:52;3.47;;;2.70;;
48026;SDS011;50714;49.208;5.364;2023-08-12T01:21:02;2.58;;;2.25;;
48026;SDS011;50714;49.208;5.364;2023-08-12T01:31:15;2.72;;;2.28;;
48026;SDS011;50714;49.208;5.364;2023-08-12T01:41:23;2.43;;;2.03;;
48026;SDS011;50714;49.208;5.364;2023-08-12T01:51:24;2.75;;;1.83;;
48026;SDS011;50714;49.208;5.364;2023-08-12T02:01:24;3.08;;;1.98;;
48026;SDS011;50714;49.208;5.364;2023-08-12T02:11:25;3.67;;;2.30;;
48026;SDS011;50714;49.208;5.364;2023-08-12T02:21:25;2.08;;;1.83;;
48026;SDS011;50714;49.208;5.364;2023-08-12T02:31:25;3.72;;;2.20;;
48026;SDS011;50714;49.208;5.364;2023-08-12T02:41:26;2.00;;;1.80;;
48026;SDS011;50714;49.208;5.364;2023-08-12T02:51:26;2.15;;;1.85;;
48026;SDS011;50714;49.208;5.364;2023-08-12T03:01:26;3.15;;;2.35;;
48026;SDS011;50714;49.208;5.364;2023-08-12T03:11:27;3.67;;;2.13;;
48026;SDS011;50714;49.208;5.364;2023-08-12T03:21:27;3.72;;;2.60;;
48026;SDS011;50714;49.208;5.364;2023-08-12T03:31:28;3.47;;;2.58;;
48026;SDS011;50714;49.208;5.364;2023-08-12T03:41:28;4.25;;;2.83;;
48026;SDS011;50714;49.208;5.364;2023-08-12T03:51:29;3.55;;;2.80;;
48026;SDS011;50714;49.208;5.364;2023-08-12T04:01:29;3.70;;;2.70;;
48026;SDS011;50714;49.208;5.364;2023-08-12T04:11:30;3.90;;;3.17;;
48026;SDS011;50714;49.208;5.364;2023-08-12T04:21:30;3.05;;;2.53;;
48026;SDS011;50714;49.208;5.364;2023-08-12T04:31:30;4.80;;;2.33;;
48026;SDS011;50714;49.208;5.364;2023-08-12T04:41:31;3.05;;;2.58;;
48026;SDS011;50714;49.208;5.364;2023-08-12T04:51:31;3.03;;;2.42;;
48026;SDS011;50714;49.208;5.364;2023-08-12T05:01:31;2.55;;;2.13;;
48026;SDS011;50714;49.208;5.364;2023-08-12T05:11:32;2.55;;;2.22;;
48026;SDS011;50714;49.208;5.364;2023-08-12T05:21:32;2.63;;;2.13;;
48026;SDS011;50714;49.208;5.364;2023-08-12T05:31:32;2.47;;;1.75;;
48026;SDS011;50714;49.208;5.364;2023-08-12T05:41:33;2.55;;;2.20;;
48026;SDS011;50714;49.208;5.364;2023-08-12T05:51:33;3.85;;;2.30;;
48026;SDS011;50714;49.208;5.364;2023-08-12T06:01:33;2.60;;;2.40;;
48026;SDS011;50714;49.208;5.364;2023-08-12T06:11:34;2.13;;;1.88;;
48026;SDS011;50714;49.208;5.364;2023-08-12T06:21:34;4.88;;;2.50;;
48026;SDS011;50714;49.208;5.364;2023-08-12T06:31:34;2.40;;;2.10;;
48026;SDS011;50714;49.208;5.364;2023-08-12T06:41:35;2.92;;;2.30;;
48026;SDS011;50714;49.208;5.364;2023-08-12T06:51:35;2.08;;;1.92;;
48026;SDS011;50714;49.208;5.364;2023-08-12T07:01:35;2.83;;;2.45;;
48026;SDS011;50714;49.208;5.364;2023-08-12T07:11:36;3.05;;;2.25;;
48026;SDS011;50714;49.208;5.364;2023-08-12T07:21:36;3.47;;;2.63;;
48026;SDS011;50714;49.208;5.364;2023-08-12T07:31:36;3.35;;;2.80;;
48026;SDS011;50714;49.208;5.364;2023-08-12T07:41:36;4.20;;;3.00;;
48026;SDS011;50714;49.208;5.364;2023-08-12T07:51:37;4.10;;;2.83;;
48026;SDS011;50714;49.208;5.364;2023-08-12T08:01:37;3.05;;;2.42;;
48026;SDS011;50714;49.208;5.364;2023-08-12T08:11:38;3.17;;;2.40;;
48026;SDS011;50714;49.208;5.364;2023-08-12T08:21:38;3.88;;;2.00;;
48026;SDS011;50714;49.208;5.364;2023-08-12T08:31:39;2.85;;;1.75;;
48026;SDS011;50714;49.208;5.364;2023-08-12T08:41:39;3.10;;;1.88;;
48026;SDS011;50714;49.208;5.364;2023-08-12T08:51:40;2.00;;;1.67;;
48026;SDS011;50714;49.208;5.364;2023-08-12T09:01:43;3.20;;;1.95;;
48026;SDS011;50714;49.208;5.364;2023-08-12T09:11:47;2.05;;;1.77;;
48026;SDS011;50714;49.208;5.364;2023-08-12T09:21:54;2.88;;;1.95;;
48026;SDS011;50714;49.208;5.364;2023-08-12T09:31:54;2.80;;;1.88;;
48026;SDS011;50714;49.208;5.364;2023-08-12T09:41:55;1.90;;;1.70;;
48026;SDS011;50714;49.208;5.364;2023-08-12T09:51:55;2.60;;;1.90;;
48026;SDS011;50714;49.208;5.364;2023-08-12T10:01:57;2.13;;;1.67;;
48026;SDS011;50714;49.208;5.364;2023-08-12T10:11:57;2.77;;;2.00;;
48026;SDS011;50714;49.208;5.364;2023-08-12T10:21:59;2.58;;;1.77;;
48026;SDS011;50714;49.208;5.364;2023-08-12T10:32:02;2.80;;;1.55;;
48026;SDS011;50714;49.208;5.364;2023-08-12T10:42:03;2.65;;;1.20;;
48026;SDS011;50714;49.208;5.364;2023-08-12T10:52:03;1.83;;;1.10;;
48026;SDS011;50714;49.208;5.364;2023-08-12T11:02:07;2.17;;;1.30;;
48026;SDS011;50714;49.208;5.364;2023-08-12T11:12:16;2.60;;;1.50;;
48026;SDS011;50714;49.208;5.364;2023-08-12T11:22:17;2.53;;;1.42;;
48026;SDS011;50714;49.208;5.364;2023-08-12T11:32:18;3.70;;;1.45;;
48026;SDS011;50714;49.208;5.364;2023-08-12T11:42:19;2.85;;;1.63;;
48026;SDS011;50714;49.208;5.364;2023-08-12T11:52:19;1.85;;;1.55;;
48026;SDS011;50714;49.208;5.364;2023-08-12T12:02:20;2.65;;;1.67;;
48026;SDS011;50714;49.208;5.364;2023-08-12T12:12:24;2.05;;;1.48;;
48026;SDS011;50714;49.208;5.364;2023-08-12T12:22:31;2.25;;;1.55;;
48026;SDS011;50714;49.208;5.364;2023-08-12T12:32:35;2.53;;;1.98;;
48026;SDS011;50714;49.208;5.364;2023-08-12T12:42:35;2.42;;;2.13;;
48026;SDS011;50714;49.208;5.364;2023-08-12T12:52:36;2.40;;;1.73;;
48026;SDS011;50714;49.208;5.364;2023-08-12T13:02:36;2.00;;;1.80;;
48026;SDS011;50714;49.208;5.364;2023-08-12T13:12:37;2.45;;;1.70;;
48026;SDS011;50714;49.208;5.364;2023-08-12T13:22:37;1.58;;;1.40;;
48026;SDS011;50714;49.208;5.364;2023-08-12T13:32:38;1.58;;;1.40;;
48026;SDS011;50714;49.208;5.364;2023-08-12T13:42:38;1.77;;;1.20;;
48026;SDS011;50714;49.208;5.364;2023-08-12T13:52:39;1.38;;;1.00;;
48026;SDS011;50714;49.208;5.364;2023-08-12T14:02:40;0.68;;;0.68;;
48026;SDS011;50714;49.208;5.364;2023-08-12T14:12:40;0.50;;;0.50;;
48026;SDS011;50714;49.208;5.364;2023-08-12T14:22:41;0.57;;;0.50;;
48026;SDS011;50714;49.208;5.364;2023-08-12T14:32:43;0.73;;;0.70;;
48026;SDS011;50714;49.208;5.364;2023-08-12T14:42:43;0.52;;;0.52;;
48026;SDS011;50714;49.208;5.364;2023-08-12T14:52:44;0.50;;;0.50;;
48026;SDS011;50714;49.208;5.364;2023-08-12T15:02:44;0.40;;;0.40;;
48026;SDS011;50714;49.208;5.364;2023-08-12T15:12:44;1.40;;;0.40;;
48026;SDS011;50714;49.208;5.364;2023-08-12T15:22:45;0.20;;;0.20;;
48026;SDS011;50714;49.208;5.364;2023-08-12T15:32:45;0.28;;;0.28;;
48026;SDS011;50714;49.208;5.364;2023-08-12T15:42:46;0.30;;;0.30;;
48026;SDS011;50714;49.208;5.364;2023-08-12T15:52:48;0.40;;;0.30;;
48026;SDS011;50714;49.208;5.364;2023-08-12T16:02:49;0.60;;;0.60;;
48026;SDS011;50714;49.208;5.364;2023-08-12T16:12:50;0.45;;;0.35;;
48026;SDS011;50714;49.208;5.364;2023-08-12T16:22:50;0.38;;;0.20;;
48026;SDS011;50714;49.208;5.364;2023-08-12T16:32:50;0.30;;;0.30;;
48026;SDS011;50714;49.208;5.364;2023-08-12T16:42:51;0.30;;;0.30;;
48026;SDS011;50714;49.208;5.364;2023-08-12T16:52:51;0.40;;;0.40;;
48026;SDS011;50714;49.208;5.364;2023-08-12T17:02:51;0.30;;;0.30;;
48026;SDS011;50714;49.208;5.364;2023-08-12T17:12:52;0.40;;;0.40;;
48026;SDS011;50714;49.208;5.364;2023-08-12T17:22:53;0.95;;;0.30;;
48026;SDS011;50714;49.208;5.364;2023-08-12T17:32:53;0.20;;;0.20;;
48026;SDS011;50714;49.208;5.364;2023-08-12T17:42:54;0.30;;;0.30;;
48026;SDS011;50714;49.208;5.364;2023-08-12T17:52:54;0.20;;;0.20;;
48026;SDS011;50714;49.208;5.364;2023-08-12T18:02:54;0.32;;;0.20;;
48026;SDS011;50714;49.208;5.364;2023-08-12T18:12:55;0.40;;;0.40;;
48026;SDS011;50714;49.208;5.364;2023-08-12T18:22:55;1.08;;;0.55;;
48026;SDS011;50714;49.208;5.364;2023-08-12T18:32:56;0.47;;;0.20;;
48026;SDS011;50714;49.208;5.364;2023-08-12T18:42:56;0.35;;;0.35;;
48026;SDS011;50714;49.208;5.364;2023-08-12T18:52:56;1.20;;;0.85;;
48026;SDS011;50714;49.208;5.364;2023-08-12T19:02:57;0.60;;;0.60;;
48026;SDS011;50714;49.208;5.364;2023-08-12T19:12:57;0.50;;;0.50;;
48026;SDS011;50714;49.208;5.364;2023-08-12T19:22:57;0.77;;;0.60;;
48026;SDS011;50714;49.208;5.364;2023-08-12T19:32:58;1.05;;;0.50;;
48026;SDS011;50714;49.208;5.364;2023-08-12T19:42:58;0.40;;;0.40;;
48026;SDS011;50714;49.208;5.364;2023-08-12T19:52:59;0.55;;;0.50;;
48026;SDS011;50714;49.208;5.364;2023-08-12T20:02:59;0.95;;;0.40;;
48026;SDS011;50714;49.208;5.364;2023-08-12T20:12:59;0.40;;;0.40;;
48026;SDS011;50714;49.208;5.364;2023-08-12T20:23:01;0.73;;;0.50;;
48026;SDS011;50714;49.208;5.364;2023-08-12T20:33:02;0.75;;;0.50;;
48026;SDS011;50714;49.208;5.364;2023-08-12T20:43:03;0.75;;;0.57;;
48026;SDS011;50714;49.208;5.364;2023-08-12T20:53:04;0.60;;;0.32;;
48026;SDS011;50714;49.208;5.364;2023-08-12T21:03:04;0.35;;;0.35;;
48026;SDS011;50714;49.208;5.364;2023-08-12T21:13:04;0.50;;;0.50;;
48026;SDS011;50714;49.208;5.364;2023-08-12T21:23:05;0.30;;;0.30;;
48026;SDS011;50714;49.208;5.364;2023-08-12T21:33:05;0.57;;;0.50;;
48026;SDS011;50714;49.208;5.364;2023-08-12T21:43:05;0.57;;;0.57;;
48026;SDS011;50714;49.208;5.364;2023-08-12T21:53:06;0.45;;;0.45;;
48026;SDS011;50714;49.208;5.364;2023-08-12T22:03:06;1.27;;;0.60;;
48026;SDS011;50714;49.208;5.364;2023-08-12T22:13:06;0.75;;;0.50;;
48026;SDS011;50714;49.208;5.364;2023-08-12T22:23:07;0.52;;;0.50;;
48026;SDS011;50714;49.208;5.364;2023-08-12T22:33:07;0.45;;;0.45;;
48026;SDS011;50714;49.208;5.364;2023-08-12T22:43:07;0.43;;;0.40;;
48026;SDS011;50714;49.208;5.364;2023-08-12T22:53:08;0.65;;;0.50;;
48026;SDS011;50714;49.208;5.364;2023-08-12T23:03:09;1.60;;;0.80;;
48026;SDS011;50714;49.208;5.364;2023-08-12T23:13:10;0.68;;;0.68;;
48026;SDS011;50714;49.208;5.364;2023-08-12T23:23:10;0.57;;;0.40;;
48026;SDS011;50714;49.208;5.364;2023-08-12T23:33:11;0.95;;;0.68;;
48026;SDS011;50714;49.208;5.364;2023-08-12T23:43:11;0.60;;;0.60;;
48026;SDS011;50714;49.208;5.364;2023-08-12T23:53:11;0.88;;;0.70;;
